Time;durP1;ratioP1;P1;durP2;ratioP2;P2;SDS_P1;SDS_P2;PMS_P1;PMS_P2;Temp;Humidity;BMP_temperature;BMP_pressure;BME280_temperature;BME280_humidity;BME280_pressure;Samples;Min_cycle;Max_cycle;Signal;HPM_P1;HPM_P2
2023/01/11 00:02:14;;;;;;;4.17;2.20;;;12.00;99.90;;;;;;5094357;28;20210;-94
2023/01/11 00:04:41;;;;;;;4.80;2.00;;;12.00;99.90;;;;;;5094214;28;20279;-93
2023/01/11 00:07:10;;;;;;;5.97;2.20;;;12.00;99.90;;;;;;5094187;28;20204;-93
2023/01/11 00:09:46;;;;;;;6.13;1.83;;;12.00;99.90;;;;;;5094247;28;20232;-93
2023/01/11 00:12:13;;;;;;;6.43;2.30;;;12.00;99.90;;;;;;5094730;28;20567;-94
2023/01/11 00:14:42;;;;;;;5.57;2.40;;;12.10;99.90;;;;;;5094213;28;20206;-94
2023/01/11 00:17:09;;;;;;;5.10;2.20;;;12.10;99.90;;;;;;5093939;28;20242;-89
2023/01/11 00:19:39;;;;;;;8.47;2.30;;;12.20;99.90;;;;;;5093724;28;20208;-94
2023/01/11 00:22:13;;;;;;;7.60;2.43;;;12.20;99.90;;;;;;5094322;28;20204;-94
2023/01/11 00:24:41;;;;;;;6.03;1.80;;;12.20;99.90;;;;;;5094248;28;20205;-94
2023/01/11 00:27:10;;;;;;;5.13;2.20;;;12.20;99.90;;;;;;5094269;28;20209;-94
2023/01/11 00:29:38;;;;;;;7.70;2.00;;;12.30;99.90;;;;;;5094094;28;20216;-94
2023/01/11 00:32:06;;;;;;;7.63;2.33;;;12.30;99.90;;;;;;5094226;28;20192;-94
2023/01/11 00:34:44;;;;;;;5.17;2.03;;;12.30;99.90;;;;;;5094083;28;20214;-93
2023/01/11 00:37:11;;;;;;;6.00;2.10;;;12.30;99.90;;;;;;5096883;28;20226;-91
2023/01/11 00:39:38;;;;;;;4.50;2.30;;;12.40;99.90;;;;;;5097354;28;20204;-90
2023/01/11 00:50:20;;;;;;;5.53;2.67;;;12.40;99.90;;;;;;5097536;28;20207;-90
2023/01/11 00:52:48;;;;;;;3.73;1.80;;;12.40;99.90;;;;;;5097789;28;20212;-94
2023/01/11 00:55:21;;;;;;;4.87;1.73;;;12.40;99.90;;;;;;5097752;28;20211;-94
2023/01/11 00:57:47;;;;;;;5.30;1.77;;;12.40;99.90;;;;;;5097342;28;20232;-94
2023/01/11 01:00:18;;;;;;;3.13;1.50;;;12.30;99.90;;;;;;5097388;28;20195;-94
2023/01/11 01:02:46;;;;;;;6.03;2.07;;;12.30;99.90;;;;;;5097104;28;20797;-93
2023/01/11 01:05:19;;;;;;;5.60;1.83;;;12.30;99.90;;;;;;5097467;28;20210;-94
2023/01/11 01:07:49;;;;;;;4.47;2.30;;;12.30;99.90;;;;;;5097563;28;20195;-94
2023/01/11 01:10:18;;;;;;;2.77;1.57;;;12.30;99.90;;;;;;5097497;28;20231;-93
2023/01/11 01:15:36;;;;;;;2.87;1.93;;;12.20;99.90;;;;;;5098022;28;20268;-93
2023/01/11 01:18:03;;;;;;;8.10;1.60;;;12.20;99.90;;;;;;5097236;28;20238;-94
2023/01/11 01:20:37;;;;;;;3.80;1.50;;;12.10;99.90;;;;;;5097450;28;20195;-93
2023/01/11 01:23:06;;;;;;;4.30;1.67;;;12.10;99.90;;;;;;5097166;28;20187;-95
2023/01/11 01:25:36;;;;;;;3.57;1.43;;;12.10;99.90;;;;;;5097862;28;20200;-94
2023/01/11 01:28:04;;;;;;;1.93;1.67;;;12.10;99.90;;;;;;5097227;28;20216;-94
2023/01/11 01:30:31;;;;;;;3.30;1.70;;;12.10;99.90;;;;;;5097558;28;20208;-94
2023/01/11 01:33:04;;;;;;;2.43;1.53;;;12.10;99.90;;;;;;5096543;28;20203;-94
2023/01/11 01:35:37;;;;;;;1.93;1.30;;;12.10;99.90;;;;;;5097282;28;20210;-90
2023/01/11 01:38:07;;;;;;;4.73;1.73;;;12.10;99.90;;;;;;5096717;28;20224;-94
2023/01/11 01:40:41;;;;;;;3.80;1.53;;;12.10;99.90;;;;;;5097011;28;20654;-93
2023/01/11 01:43:11;;;;;;;2.17;1.30;;;12.20;99.90;;;;;;5096942;28;20204;-94
2023/01/11 01:45:44;;;;;;;2.57;1.27;;;12.20;99.90;;;;;;5096556;28;20192;-94
2023/01/11 01:48:19;;;;;;;2.20;1.40;;;12.20;99.90;;;;;;5096574;28;20194;-94
2023/01/11 01:50:51;;;;;;;2.50;1.70;;;12.10;99.90;;;;;;5096961;28;20203;-93
2023/01/11 01:53:25;;;;;;;2.33;1.30;;;12.10;99.90;;;;;;5097019;28;20189;-94
2023/01/11 01:55:57;;;;;;;4.63;1.80;;;12.10;99.90;;;;;;5096388;28;20194;-93
2023/01/11 01:58:31;;;;;;;2.70;1.47;;;12.20;99.90;;;;;;5096834;28;20231;-94
2023/01/11 02:01:45;;;;;;;2.87;2.07;;;12.20;99.90;;;;;;5094869;28;20204;-94
2023/01/11 02:03:47;;;;;;;4.90;1.70;;;12.20;99.90;;;;;;5084336;28;20205;-91
2023/01/11 02:06:15;;;;;;;3.13;1.30;;;12.20;99.90;;;;;;5076786;28;20217;-94
2023/01/11 02:08:58;;;;;;;4.20;1.60;;;12.20;99.90;;;;;;5092964;28;20225;-93
2023/01/11 02:11:29;;;;;;;6.07;1.97;;;12.20;99.90;;;;;;5088443;28;20214;-94
2023/01/11 02:14:17;;;;;;;4.00;1.73;;;12.10;99.90;;;;;;5096394;28;20280;-94
2023/01/11 02:16:50;;;;;;;2.93;1.80;;;12.20;99.90;;;;;;5084177;28;20204;-94
2023/01/11 02:19:45;;;;;;;3.47;1.37;;;12.20;99.90;;;;;;5096162;28;20698;-94
2023/01/11 02:22:47;;;;;;;3.00;1.37;;;12.10;99.90;;;;;;5084971;28;20219;-94
2023/01/11 02:25:39;;;;;;;2.53;1.23;;;12.10;99.90;;;;;;5014253;28;20209;-94
2023/01/11 02:28:14;;;;;;;3.83;1.50;;;12.10;99.90;;;;;;5014175;28;20213;-94
2023/01/11 02:30:52;;;;;;;2.23;1.50;;;12.20;99.90;;;;;;5095378;28;20206;-94
2023/01/11 02:33:33;;;;;;;3.70;1.40;;;12.10;99.90;;;;;;5096165;28;20191;-94
2023/01/11 02:36:08;;;;;;;4.77;1.30;;;12.10;99.90;;;;;;5096155;28;20200;-93
2023/01/11 02:38:45;;;;;;;3.83;1.87;;;12.10;99.90;;;;;;5095330;28;20256;-93
2023/01/11 02:41:19;;;;;;;3.23;1.40;;;12.10;99.90;;;;;;5087721;28;20211;-94
2023/01/11 02:46:46;;;;;;;4.73;1.30;;;12.00;99.90;;;;;;5087103;28;20303;-93
2023/01/11 02:49:18;;;;;;;1.47;1.37;;;12.00;99.90;;;;;;5095570;28;20215;-94
2023/01/11 02:51:52;;;;;;;2.90;1.73;;;12.00;99.90;;;;;;5095155;28;20218;-92
2023/01/11 02:54:24;;;;;;;1.67;1.40;;;12.00;99.90;;;;;;5095381;28;20640;-93
2023/01/11 02:56:55;;;;;;;2.13;1.17;;;12.00;99.90;;;;;;5091880;28;20212;-92
2023/01/11 02:59:31;;;;;;;4.40;1.63;;;12.10;99.90;;;;;;5085244;28;20244;-92
2023/01/11 03:01:58;;;;;;;2.05;1.30;;;12.10;99.90;;;;;;5080953;28;20426;-92
2023/01/11 03:04:28;;;;;;;2.33;1.10;;;12.10;99.90;;;;;;5095071;28;20203;-92
2023/01/11 03:07:10;;;;;;;2.30;1.57;;;12.10;99.90;;;;;;5094865;28;20204;-92
2023/01/11 03:09:49;;;;;;;1.87;1.40;;;12.10;99.90;;;;;;5094393;28;20225;-92
2023/01/11 03:12:53;;;;;;;4.93;1.60;;;12.10;99.90;;;;;;5094527;28;20207;-94
2023/01/11 03:15:52;;;;;;;1.10;1.00;;;12.10;99.90;;;;;;5091068;28;20203;-93
2023/01/11 03:18:35;;;;;;;2.83;1.00;;;12.10;99.90;;;;;;5081844;28;20247;-93
2023/01/11 03:21:14;;;;;;;2.23;1.17;;;12.10;99.90;;;;;;5074966;28;20213;-93
2023/01/11 03:23:58;;;;;;;2.00;1.27;;;12.20;99.90;;;;;;5078734;28;20207;-94
2023/01/11 03:26:32;;;;;;;2.60;1.23;;;12.10;99.90;;;;;;5082426;28;20620;-93
2023/01/11 03:29:09;;;;;;;4.40;1.43;;;12.10;99.90;;;;;;5063892;28;20681;-94
2023/01/11 03:31:46;;;;;;;1.80;1.10;;;12.10;99.90;;;;;;5094866;28;20208;-93
2023/01/11 03:34:19;;;;;;;2.13;1.30;;;12.10;99.90;;;;;;5095097;28;20203;-94
2023/01/11 03:36:52;;;;;;;0.93;0.93;;;12.10;99.90;;;;;;5094963;28;20208;-93
2023/01/11 03:39:29;;;;;;;4.50;1.30;;;12.10;99.90;;;;;;5094976;28;20225;-94
2023/01/11 03:42:03;;;;;;;2.17;1.00;;;12.20;99.90;;;;;;5094682;28;20188;-94
2023/01/11 03:44:35;;;;;;;1.30;1.20;;;12.20;99.90;;;;;;5094677;28;20199;-93
2023/01/11 03:47:06;;;;;;;1.03;0.90;;;12.20;99.90;;;;;;5094698;28;20203;-94
2023/01/11 03:49:43;;;;;;;1.40;0.90;;;12.20;99.90;;;;;;5094986;28;20197;-94
2023/01/11 03:52:16;;;;;;;1.27;0.90;;;12.20;99.90;;;;;;5095222;28;20197;-94
2023/01/11 03:54:49;;;;;;;0.93;0.80;;;12.20;99.90;;;;;;5094938;28;20201;-93
2023/01/11 03:57:21;;;;;;;2.50;1.10;;;12.20;99.90;;;;;;5094528;28;20292;-94
2023/01/11 03:59:53;;;;;;;1.10;1.00;;;12.20;99.90;;;;;;5093796;28;20438;-93
2023/01/11 04:02:27;;;;;;;0.80;0.80;;;12.30;99.90;;;;;;5076558;28;20208;-94
2023/01/11 04:05:00;;;;;;;1.13;1.00;;;12.20;99.90;;;;;;5094579;28;20188;-93
2023/01/11 04:07:27;;;;;;;1.17;1.00;;;12.20;99.90;;;;;;5094046;28;20658;-93
2023/01/11 04:09:54;;;;;;;2.60;1.27;;;12.20;99.90;;;;;;5094181;28;20239;-94
2023/01/11 04:12:26;;;;;;;1.20;1.00;;;12.20;99.90;;;;;;5094412;28;20203;-93
2023/01/11 04:14:53;;;;;;;1.00;0.90;;;12.20;99.90;;;;;;5094759;28;20212;-94
2023/01/11 04:17:23;;;;;;;1.00;0.80;;;12.10;99.90;;;;;;5094043;28;20207;-93
2023/01/11 04:19:53;;;;;;;0.83;0.83;;;12.10;99.90;;;;;;5094252;28;20241;-94
2023/01/11 04:22:23;;;;;;;2.10;0.90;;;12.10;99.90;;;;;;5094239;28;20206;-94
2023/01/11 04:25:04;;;;;;;2.10;0.87;;;12.10;99.90;;;;;;5094392;28;20208;-94
2023/01/11 04:27:31;;;;;;;3.03;0.90;;;12.10;99.90;;;;;;5094108;28;20281;-93
2023/01/11 04:29:58;;;;;;;1.13;0.60;;;12.10;99.90;;;;;;5094288;28;20201;-93
2023/01/11 04:32:26;;;;;;;3.07;0.67;;;12.10;99.90;;;;;;5094237;28;20206;-93
2023/01/11 04:34:59;;;;;;;3.10;0.93;;;12.10;99.90;;;;;;5094422;28;20283;-93
2023/01/11 04:37:32;;;;;;;3.23;1.20;;;12.10;99.90;;;;;;5093997;28;20640;-93
2023/01/11 04:40:05;;;;;;;0.80;0.80;;;12.10;99.90;;;;;;5093536;28;20601;-94
2023/01/11 04:42:49;;;;;;;2.03;0.90;;;12.10;99.90;;;;;;5094081;28;20215;-93
2023/01/11 04:45:17;;;;;;;3.00;1.57;;;12.10;99.90;;;;;;5094179;28;20635;-94
2023/01/11 04:47:55;;;;;;;2.53;0.93;;;12.00;99.90;;;;;;5094226;28;20637;-94
2023/01/11 04:50:25;;;;;;;3.17;1.47;;;12.00;99.90;;;;;;5094322;28;20264;-93
2023/01/11 04:52:54;;;;;;;7.30;1.37;;;12.00;99.90;;;;;;5093894;28;20216;-92
2023/01/11 04:55:26;;;;;;;3.83;1.90;;;12.10;99.90;;;;;;5093685;28;20200;-94
2023/01/11 04:57:53;;;;;;;4.67;1.77;;;12.00;99.90;;;;;;5093803;28;20216;-93
2023/01/11 05:00:23;;;;;;;5.57;1.67;;;12.00;99.90;;;;;;5093988;28;20220;-93
2023/01/11 05:02:51;;;;;;;9.70;1.97;;;12.00;99.90;;;;;;5093651;28;20220;-94
2023/01/11 05:05:25;;;;;;;4.80;2.10;;;12.00;99.90;;;;;;5093903;28;20208;-93
2023/01/11 05:07:53;;;;;;;10.10;2.73;;;12.00;99.90;;;;;;5094220;28;20207;-94
2023/01/11 05:10:26;;;;;;;8.83;2.60;;;12.00;99.90;;;;;;5093653;28;20232;-94
2023/01/11 05:12:59;;;;;;;6.90;2.23;;;12.00;99.90;;;;;;5094094;28;20212;-93
2023/01/11 05:15:34;;;;;;;5.83;2.10;;;12.10;99.90;;;;;;5093931;28;20197;-94
2023/01/11 05:18:09;;;;;;;8.47;2.40;;;12.10;99.90;;;;;;5093560;28;20204;-94
2023/01/11 05:20:37;;;;;;;8.00;2.33;;;12.00;99.90;;;;;;5093466;28;20210;-94
2023/01/11 05:23:10;;;;;;;7.67;2.07;;;12.10;99.90;;;;;;5096059;28;20221;-93
2023/01/11 05:25:45;;;;;;;8.37;2.40;;;12.10;99.90;;;;;;5097714;28;20212;-94
2023/01/11 05:28:13;;;;;;;8.63;2.40;;;12.10;99.90;;;;;;5096701;28;20440;-92
2023/01/11 05:30:42;;;;;;;10.47;2.20;;;12.20;99.90;;;;;;5097455;28;20208;-94
2023/01/11 05:33:11;;;;;;;12.67;2.60;;;12.10;99.90;;;;;;5097395;28;20231;-94
2023/01/11 05:35:45;;;;;;;10.50;2.60;;;12.00;99.90;;;;;;5097305;28;20211;-93
2023/01/11 05:38:13;;;;;;;10.80;2.43;;;12.00;99.90;;;;;;5096672;28;20192;-95
2023/01/11 05:40:54;;;;;;;12.10;2.83;;;12.00;99.90;;;;;;5097730;28;20207;-94
2023/01/11 05:43:21;;;;;;;8.50;2.40;;;11.90;99.90;;;;;;5096852;28;20674;-94
2023/01/11 05:45:52;;;;;;;10.70;2.70;;;11.90;99.90;;;;;;5097401;28;20204;-94
2023/01/11 05:48:25;;;;;;;11.10;2.47;;;11.90;99.90;;;;;;5096874;28;20195;-93
2023/01/11 05:50:56;;;;;;;13.77;2.70;;;11.80;99.90;;;;;;5097007;28;20214;-95
2023/01/11 05:53:29;;;;;;;16.40;2.40;;;11.80;99.90;;;;;;5096465;28;20212;-94
2023/01/11 05:56:02;;;;;;;15.60;3.13;;;11.70;99.90;;;;;;5096631;28;20647;-94
2023/01/11 05:58:29;;;;;;;12.85;3.00;;;11.70;99.90;;;;;;5096492;28;20445;-94
2023/01/11 06:00:56;;;;;;;16.87;3.93;;;11.60;99.90;;;;;;5095904;28;20207;-94
2023/01/11 06:03:27;;;;;;;11.50;3.20;;;11.60;99.90;;;;;;5094871;28;20658;-93
2023/01/11 06:05:59;;;;;;;17.77;4.13;;;11.50;99.90;;;;;;5088505;28;20294;-94
2023/01/11 06:08:29;;;;;;;14.83;3.10;;;11.50;99.90;;;;;;5091602;28;20206;-93
2023/01/11 06:11:02;;;;;;;10.97;3.33;;;11.50;99.90;;;;;;5096194;28;20321;-94
2023/01/11 06:13:28;;;;;;;13.07;3.20;;;11.50;99.90;;;;;;5096336;28;20202;-93
2023/01/11 06:16:00;;;;;;;13.63;3.50;;;11.40;99.90;;;;;;5096531;28;20210;-94
2023/01/11 06:18:27;;;;;;;18.67;3.93;;;11.40;99.90;;;;;;5096195;28;20248;-95
2023/01/11 06:20:57;;;;;;;20.90;4.67;;;11.30;99.90;;;;;;5096286;28;20207;-92
2023/01/11 06:23:29;;;;;;;18.77;3.30;;;11.30;99.90;;;;;;5097042;28;20200;-93
2023/01/11 06:26:01;;;;;;;15.37;3.33;;;11.20;99.90;;;;;;5095886;28;20643;-92
2023/01/11 06:28:27;;;;;;;18.40;3.80;;;11.20;99.90;;;;;;5095354;28;20234;-92
2023/01/11 06:30:57;;;;;;;12.93;3.40;;;11.10;99.90;;;;;;5096376;28;20210;-92
2023/01/11 06:33:28;;;;;;;11.57;3.07;;;11.10;99.90;;;;;;5094914;28;20209;-93
2023/01/11 06:35:59;;;;;;;18.37;3.67;;;11.00;99.90;;;;;;5095808;28;20197;-92
2023/01/11 06:38:31;;;;;;;14.20;2.80;;;11.10;99.90;;;;;;5095962;28;20666;-92
2023/01/11 06:41:04;;;;;;;17.23;3.33;;;11.00;99.90;;;;;;5078046;28;20221;-92
2023/01/11 06:43:33;;;;;;;19.13;3.70;;;10.90;99.90;;;;;;5096029;28;20197;-92
2023/01/11 06:46:00;;;;;;;16.20;4.03;;;11.00;99.90;;;;;;5095807;28;20661;-93
2023/01/11 06:48:30;;;;;;;12.17;3.10;;;10.90;99.90;;;;;;5096076;28;20201;-92
2023/01/11 06:51:04;;;;;;;17.30;3.33;;;10.80;99.90;;;;;;5095865;28;20189;-92
2023/01/11 06:53:34;;;;;;;14.77;2.83;;;10.90;99.90;;;;;;5095719;28;20289;-93
2023/01/11 06:56:01;;;;;;;18.27;3.33;;;10.80;99.90;;;;;;5095986;28;20532;-94
2023/01/11 06:58:31;;;;;;;18.27;2.63;;;10.70;99.90;;;;;;5077954;28;20202;-94
2023/01/11 07:00:58;;;;;;;15.30;2.80;;;10.70;99.90;;;;;;5095719;28;20664;-93
2023/01/11 07:03:26;;;;;;;16.67;2.63;;;10.70;99.90;;;;;;5095097;28;20582;-94
2023/01/11 07:05:57;;;;;;;14.37;2.83;;;10.60;99.90;;;;;;5093928;28;20205;-91
2023/01/11 07:08:28;;;;;;;12.87;2.70;;;10.50;99.90;;;;;;5095379;28;20203;-92
2023/01/11 07:10:58;;;;;;;12.47;2.70;;;10.50;99.90;;;;;;5095177;28;20212;-93
2023/01/11 07:13:26;;;;;;;13.37;3.23;;;10.50;99.90;;;;;;5095262;28;20212;-93
2023/01/11 07:15:57;;;;;;;8.10;2.97;;;10.60;99.90;;;;;;5095238;28;20196;-91
2023/01/11 07:18:39;;;;;;;14.97;2.87;;;10.40;99.90;;;;;;5095148;28;20199;-90
2023/01/11 07:21:07;;;;;;;9.37;3.20;;;10.40;99.90;;;;;;5094542;28;20233;-91
2023/01/11 07:23:36;;;;;;;8.53;2.43;;;10.40;99.90;;;;;;5094564;28;20201;-92
2023/01/11 07:26:04;;;;;;;15.87;3.63;;;10.40;99.90;;;;;;5088950;28;20284;-93
2023/01/11 07:28:30;;;;;;;16.07;2.87;;;10.30;99.90;;;;;;5095136;28;20676;-93
2023/01/11 07:30:58;;;;;;;16.63;2.83;;;10.30;99.90;;;;;;5093155;28;20636;-94
2023/01/11 07:33:25;;;;;;;14.70;2.60;;;10.30;99.90;;;;;;5077441;28;20288;-92
2023/01/11 07:35:52;;;;;;;10.17;2.60;;;10.30;99.90;;;;;;5056082;28;20206;-92
2023/01/11 07:38:18;;;;;;;18.40;3.17;;;10.20;99.90;;;;;;5074366;28;20232;-94
2023/01/11 07:40:47;;;;;;;12.27;3.00;;;10.20;99.90;;;;;;5073644;28;20233;-93
2023/01/11 07:43:13;;;;;;;16.00;3.53;;;10.20;99.90;;;;;;5074054;28;20205;-92
2023/01/11 07:45:43;;;;;;;17.20;3.47;;;10.20;99.90;;;;;;5073893;28;20603;-94
2023/01/11 07:48:11;;;;;;;14.17;3.33;;;10.10;99.90;;;;;;5073760;28;20673;-93
2023/01/11 07:50:40;;;;;;;15.00;2.87;;;10.00;99.90;;;;;;5074871;28;20205;-93
2023/01/11 07:53:07;;;;;;;13.50;3.10;;;10.00;99.90;;;;;;5076341;28;20603;-91
2023/01/11 07:55:34;;;;;;;17.70;4.10;;;9.90;99.90;;;;;;5079175;28;20197;-92
2023/01/11 07:58:03;;;;;;;20.33;4.00;;;9.90;99.90;;;;;;5073008;28;20440;-90
2023/01/11 08:00:29;;;;;;;16.13;3.43;;;10.00;99.90;;;;;;5073268;28;20233;-90
2023/01/11 08:02:56;;;;;;;15.13;3.10;;;9.90;99.90;;;;;;5072835;28;20209;-89
2023/01/11 08:05:24;;;;;;;14.53;3.67;;;9.90;99.90;;;;;;5073311;28;20190;-91
2023/01/11 08:07:51;;;;;;;14.20;3.17;;;9.90;99.90;;;;;;5073707;28;20205;-88
2023/01/11 08:10:18;;;;;;;14.30;3.03;;;9.80;99.90;;;;;;5073413;28;20232;-93
2023/01/11 08:15:32;;;;;;;18.43;3.70;;;9.80;99.90;;;;;;5076397;28;20199;-95
2023/01/11 08:17:59;;;;;;;12.73;2.83;;;9.90;99.90;;;;;;5090521;28;20211;-92
2023/01/11 08:20:27;;;;;;;15.97;3.70;;;9.70;99.90;;;;;;5080758;28;20212;-92
2023/01/11 08:22:55;;;;;;;27.87;3.77;;;9.70;99.90;;;;;;5075728;28;20209;-93
2023/01/11 08:25:22;;;;;;;17.80;3.70;;;9.70;99.90;;;;;;5072646;28;20205;-91
2023/01/11 08:27:49;;;;;;;20.27;4.68;;;9.70;99.90;;;;;;5073844;28;20423;-93
2023/01/11 08:30:16;;;;;;;20.37;3.93;;;9.80;99.90;;;;;;5093714;28;20217;-92
2023/01/11 08:32:44;;;;;;;15.07;3.57;;;9.80;99.90;;;;;;5093261;28;20201;-93
2023/01/11 08:35:11;;;;;;;18.37;4.07;;;9.70;99.90;;;;;;5092843;28;20201;-93
2023/01/11 08:37:39;;;;;;;18.80;4.40;;;9.80;99.90;;;;;;5092450;28;20201;-93
2023/01/11 08:40:07;;;;;;;17.00;3.17;;;9.80;99.90;;;;;;5091368;28;20225;-93
2023/01/11 08:42:34;;;;;;;15.77;3.40;;;9.80;99.90;;;;;;5090928;28;20663;-90
2023/01/11 08:45:01;;;;;;;21.23;4.50;;;9.80;99.90;;;;;;5091279;28;20201;-92
2023/01/11 08:47:27;;;;;;;17.03;3.77;;;9.70;99.90;;;;;;5081264;28;20197;-92
2023/01/11 08:49:59;;;;;;;19.93;3.93;;;9.80;99.90;;;;;;5089091;28;20205;-93
2023/01/11 08:52:26;;;;;;;24.33;3.90;;;9.70;99.90;;;;;;5093954;28;20192;-93
2023/01/11 08:54:54;;;;;;;18.67;3.17;;;9.70;99.90;;;;;;5092244;28;20208;-96
2023/01/11 08:57:21;;;;;;;19.87;3.87;;;9.60;99.90;;;;;;5094568;28;20215;-91
2023/01/11 08:59:47;;;;;;;16.70;3.37;;;9.60;99.90;;;;;;5097558;28;20225;-91
2023/01/11 09:02:14;;;;;;;20.50;4.53;;;9.60;99.90;;;;;;5097337;28;20201;-91
2023/01/11 09:04:41;;;;;;;14.50;3.20;;;9.60;99.90;;;;;;5097350;28;20189;-92
2023/01/11 09:07:10;;;;;;;16.93;4.13;;;9.60;99.90;;;;;;5097245;28;20219;-91
2023/01/11 09:09:36;;;;;;;19.27;4.37;;;9.60;99.90;;;;;;5096703;28;20228;-90
2023/01/11 09:12:03;;;;;;;15.47;3.23;;;9.70;99.90;;;;;;5096987;28;20201;-91
2023/01/11 09:14:30;;;;;;;22.13;4.10;;;9.60;99.90;;;;;;5097272;28;20196;-92
2023/01/11 09:16:58;;;;;;;21.07;3.53;;;9.60;99.90;;;;;;5096855;28;20201;-91
2023/01/11 09:19:25;;;;;;;18.67;3.53;;;9.70;99.90;;;;;;5096743;28;20292;-91
2023/01/11 09:21:55;;;;;;;20.37;3.77;;;9.70;99.90;;;;;;5096999;28;20208;-91
2023/01/11 09:24:23;;;;;;;22.17;3.95;;;9.80;99.90;;;;;;5097008;28;20816;-92
2023/01/11 09:26:50;;;;;;;22.93;3.63;;;9.80;99.90;;;;;;5097212;28;20205;-90
2023/01/11 09:29:17;;;;;;;18.60;4.57;;;9.80;99.90;;;;;;5096730;28;20235;-91
2023/01/11 09:31:44;;;;;;;20.80;4.53;;;9.90;99.90;;;;;;5097196;28;20205;-92
2023/01/11 09:34:12;;;;;;;15.63;3.23;;;9.90;99.90;;;;;;5096891;28;20209;-92
2023/01/11 09:36:39;;;;;;;21.33;4.30;;;9.90;99.90;;;;;;5096680;28;20275;-93
2023/01/11 09:39:10;;;;;;;17.30;3.60;;;9.90;99.90;;;;;;5096834;28;20209;-92
2023/01/11 09:41:55;;;;;;;20.90;4.47;;;9.90;99.90;;;;;;5096330;28;20239;-91
2023/01/11 09:44:25;;;;;;;17.03;3.97;;;10.00;99.90;;;;;;5077907;28;20664;-90
2023/01/11 09:46:59;;;;;;;14.93;3.40;;;10.00;99.90;;;;;;5097236;28;20193;-88
2023/01/11 09:49:31;;;;;;;19.70;4.27;;;10.00;99.90;;;;;;5095742;28;20204;-89
2023/01/11 09:52:06;;;;;;;19.97;4.30;;;10.00;99.90;;;;;;5096795;28;20205;-92
2023/01/11 09:54:34;;;;;;;28.53;5.47;;;10.10;99.90;;;;;;5095150;28;20438;-93
2023/01/11 09:57:17;;;;;;;20.97;4.50;;;10.10;99.90;;;;;;5096072;28;20438;-94
2023/01/11 09:59:51;;;;;;;31.30;4.63;;;10.20;99.90;;;;;;5090393;28;20219;-91
2023/01/11 10:02:34;;;;;;;19.23;3.87;;;10.30;99.90;;;;;;5076355;28;20193;-93
2023/01/11 10:05:40;;;;;;;17.63;3.97;;;10.20;99.90;;;;;;5076765;28;20205;-93
2023/01/11 10:08:23;;;;;;;14.67;3.37;;;10.40;99.90;;;;;;5069205;28;20213;-92
2023/01/11 10:10:57;;;;;;;15.67;3.77;;;10.40;99.90;;;;;;5075657;28;20596;-94
2023/01/11 10:13:41;;;;;;;20.30;4.00;;;10.40;99.90;;;;;;5075338;28;20224;-94
2023/01/11 10:16:20;;;;;;;14.13;4.00;;;10.40;99.90;;;;;;5058143;28;20230;-93
2023/01/11 10:19:04;;;;;;;13.80;3.47;;;10.40;99.90;;;;;;5075612;28;20202;-92
2023/01/11 10:21:37;;;;;;;18.53;4.23;;;10.40;99.90;;;;;;5057764;28;20229;-92
2023/01/11 10:24:13;;;;;;;18.40;4.57;;;10.40;99.90;;;;;;5075976;28;20198;-92
2023/01/11 10:26:40;;;;;;;21.63;3.97;;;10.50;99.90;;;;;;5069645;28;20674;-93
2023/01/11 10:29:37;;;;;;;16.80;4.30;;;10.50;99.90;;;;;;5079803;28;20217;-92
2023/01/11 10:32:32;;;;;;;18.27;4.07;;;10.60;99.90;;;;;;5057541;28;20206;-91
2023/01/11 10:38:25;;;;;;;17.70;4.43;;;10.60;99.90;;;;;;5068914;28;20208;-91
2023/01/11 10:41:03;;;;;;;19.30;3.93;;;10.60;99.90;;;;;;5092239;28;20229;-91
2023/01/11 10:43:34;;;;;;;19.97;3.60;;;10.60;99.90;;;;;;5094728;28;20212;-90
2023/01/11 10:46:08;;;;;;;22.77;4.10;;;10.70;99.90;;;;;;5095344;28;20206;-91
2023/01/11 10:48:38;;;;;;;26.50;4.20;;;10.70;99.90;;;;;;5095434;28;20202;-91
2023/01/11 10:51:14;;;;;;;23.23;3.97;;;10.70;99.90;;;;;;5095724;28;20201;-92
2023/01/11 10:53:54;;;;;;;26.43;5.07;;;10.80;99.90;;;;;;5094624;28;20212;-93
2023/01/11 10:56:34;;;;;;;19.13;4.43;;;10.80;99.90;;;;;;5092187;28;20189;-91
2023/01/11 10:59:17;;;;;;;17.13;3.50;;;10.90;99.90;;;;;;5092867;28;20197;-92
2023/01/11 11:01:54;;;;;;;20.30;4.57;;;10.90;99.90;;;;;;5093387;28;20233;-91
2023/01/11 11:04:39;;;;;;;21.27;4.27;;;11.00;99.90;;;;;;5095582;28;20204;-92
2023/01/11 11:07:31;;;;;;;18.73;3.90;;;11.00;99.90;;;;;;5092009;28;20213;-91
2023/01/11 11:10:09;;;;;;;16.97;4.50;;;11.20;99.90;;;;;;5094661;28;20231;-91
2023/01/11 11:12:46;;;;;;;20.10;3.40;;;11.20;99.90;;;;;;5094768;28;20217;-92
2023/01/11 11:15:20;;;;;;;15.23;4.13;;;11.20;99.90;;;;;;5076763;28;20208;-92
2023/01/11 11:17:50;;;;;;;20.37;4.00;;;11.10;99.90;;;;;;5094321;28;20210;-92
2023/01/11 11:20:19;;;;;;;20.23;3.80;;;11.10;99.90;;;;;;5093916;28;20211;-92
2023/01/11 11:22:49;;;;;;;25.27;4.37;;;11.10;99.90;;;;;;5094007;28;20219;-92
2023/01/11 11:25:19;;;;;;;17.07;3.57;;;11.10;99.90;;;;;;5094207;28;20211;-91
2023/01/11 11:27:50;;;;;;;19.70;4.33;;;11.10;99.90;;;;;;5094404;28;20597;-91
2023/01/11 11:30:26;;;;;;;20.57;3.90;;;11.10;99.90;;;;;;5093910;28;20210;-92
2023/01/11 11:32:59;;;;;;;18.40;3.80;;;11.10;99.90;;;;;;5093584;28;20205;-92
2023/01/11 11:35:35;;;;;;;16.50;3.90;;;11.10;99.90;;;;;;5092150;28;20197;-92
2023/01/11 11:38:02;;;;;;;23.23;4.27;;;11.10;99.90;;;;;;5091048;28;20566;-91
2023/01/11 11:40:32;;;;;;;20.40;3.47;;;11.10;99.90;;;;;;5093440;28;20674;-91
2023/01/11 11:43:18;;;;;;;16.73;3.87;;;11.20;99.90;;;;;;5088674;28;20195;-92
2023/01/11 11:45:56;;;;;;;25.20;4.23;;;11.30;99.90;;;;;;5090795;28;20210;-92
2023/01/11 11:48:25;;;;;;;29.63;4.60;;;11.40;99.90;;;;;;5073698;28;20212;-91
2023/01/11 11:50:54;;;;;;;19.10;4.50;;;11.40;99.90;;;;;;5073841;28;20221;-92
2023/01/11 11:53:36;;;;;;;18.03;4.10;;;11.30;99.90;;;;;;5080992;28;20584;-91
2023/01/11 11:59:25;;;;;;;17.80;4.53;;;11.40;99.90;;;;;;5115564;28;20231;-92
2023/01/11 12:02:32;;;;;;;20.80;3.90;;;11.30;99.90;;;;;;5109880;28;20206;-92
2023/01/11 12:05:17;;;;;;;24.67;4.53;;;11.30;99.90;;;;;;5095859;28;20171;-92
2023/01/11 12:07:49;;;;;;;25.90;4.77;;;11.40;99.90;;;;;;5094234;28;20239;-95
2023/01/11 12:24:50;;;;;;;21.30;4.43;;;11.40;99.90;;;;;;5261042;22;20223;-81
2023/01/11 12:31:23;;;;;;;22.33;4.73;;;11.40;99.90;;;;;;5116049;28;20194;-82
2023/01/11 12:40:36;;;;;;;20.60;4.03;;;11.50;99.90;;;;;;5096797;28;20202;-81
2023/01/11 12:43:22;;;;;;;18.30;3.90;;;11.50;99.90;;;;;;5114070;28;20180;-81
2023/01/11 12:46:00;;;;;;;17.33;3.43;;;11.50;99.90;;;;;;5111819;28;20223;-80
2023/01/11 12:49:10;;;;;;;18.57;4.10;;;11.50;99.90;;;;;;5093809;28;20198;-80
2023/01/11 12:52:20;;;;;;;21.37;3.83;;;11.40;99.90;;;;;;5093822;28;20223;-81
2023/01/11 12:55:29;;;;;;;12.97;3.60;;;11.40;99.90;;;;;;5108290;28;20199;-83
2023/01/11 12:58:07;;;;;;;15.47;3.63;;;11.50;99.90;;;;;;5082464;28;20200;-82
2023/01/11 13:01:13;;;;;;;12.03;3.20;;;11.50;99.90;;;;;;5098724;28;20198;-82
2023/01/11 13:04:14;;;;;;;16.07;3.27;;;11.60;99.90;;;;;;5095845;28;20268;-82
2023/01/11 13:06:52;;;;;;;15.00;2.87;;;11.50;99.90;;;;;;5096367;28;20606;-81
2023/01/11 13:09:30;;;;;;;16.23;3.37;;;11.50;99.90;;;;;;5098787;28;20267;-82
2023/01/11 13:12:18;;;;;;;16.10;3.47;;;11.60;99.90;;;;;;5119081;28;20229;-82
2023/01/11 13:15:02;;;;;;;15.30;3.23;;;11.50;99.90;;;;;;5116750;28;20214;-81
2023/01/11 13:17:54;;;;;;;11.33;2.97;;;11.50;99.90;;;;;;5078384;28;20228;-81
2023/01/11 13:20:42;;;;;;;13.40;2.90;;;11.40;99.90;;;;;;5094089;28;20214;-83
2023/01/11 13:23:15;;;;;;;14.37;3.67;;;11.40;99.90;;;;;;5119511;28;20228;-82
2023/01/11 13:25:46;;;;;;;10.40;2.80;;;11.40;99.90;;;;;;5119890;28;20174;-83
2023/01/11 13:28:33;;;;;;;8.57;2.37;;;11.30;99.90;;;;;;5117021;28;20206;-84
2023/01/11 13:31:04;;;;;;;8.63;2.30;;;11.30;99.90;;;;;;5113637;28;20218;-81
2023/01/11 13:33:32;;;;;;;10.43;2.30;;;11.20;99.90;;;;;;5102326;28;20268;-84
2023/01/11 13:36:04;;;;;;;10.77;2.53;;;11.30;99.90;;;;;;5100793;28;20206;-82
2023/01/11 13:38:42;;;;;;;10.83;2.67;;;11.20;99.90;;;;;;5110568;28;20205;-83
2023/01/11 13:41:17;;;;;;;8.80;2.47;;;11.20;99.90;;;;;;5100547;28;20753;-83
2023/01/11 13:43:50;;;;;;;13.00;2.50;;;11.20;99.90;;;;;;5118955;28;20175;-82
2023/01/11 13:46:25;;;;;;;14.80;2.03;;;11.20;99.90;;;;;;5103135;28;20216;-82
2023/01/11 13:48:56;;;;;;;11.23;2.60;;;11.20;99.90;;;;;;5098175;28;20202;-80
2023/01/11 13:54:04;;;;;;;12.47;2.33;;;11.20;99.90;;;;;;5153458;22;20245;-93
2023/01/11 13:56:36;;;;;;;11.63;2.60;;;11.20;99.90;;;;;;5088834;28;20296;-94
2023/01/11 13:59:20;;;;;;;10.90;2.80;;;11.20;99.90;;;;;;5093200;28;20211;-93
2023/01/11 14:01:58;;;;;;;12.33;2.90;;;11.20;99.90;;;;;;5087866;28;20262;-93
2023/01/11 14:05:11;;;;;;;12.03;2.73;;;11.20;99.90;;;;;;5074613;28;20250;-93
2023/01/11 14:08:18;;;;;;;10.43;2.47;;;11.30;99.90;;;;;;5066564;28;20206;-94